sensor_id;sensor_type;location;lat;lon;timestamp;P1;durP1;ratioP1;P2;durP2;ratioP2
69053;SDS011;56125;52.242;4.756;2023-12-28T00:00:11;4.07;;;1.42;;
69053;SDS011;56125;52.242;4.756;2023-12-28T00:05:13;2.15;;;1.30;;
69053;SDS011;56125;52.242;4.756;2023-12-28T00:10:14;4.78;;;1.80;;
69053;SDS011;56125;52.242;4.756;2023-12-28T00:15:15;3.25;;;1.50;;
69053;SDS011;56125;52.242;4.756;2023-12-28T00:20:16;1.98;;;1.42;;
69053;SDS011;56125;52.242;4.756;2023-12-28T00:25:17;3.15;;;1.40;;
69053;SDS011;56125;52.242;4.756;2023-12-28T00:30:18;4.72;;;1.50;;
69053;SDS011;56125;52.242;4.756;2023-12-28T00:35:19;3.80;;;1.40;;
69053;SDS011;56125;52.242;4.756;2023-12-28T00:40:20;3.22;;;1.25;;
69053;SDS011;56125;52.242;4.756;2023-12-28T00:45:22;1.77;;;1.13;;
69053;SDS011;56125;52.242;4.756;2023-12-28T00:50:23;2.80;;;1.40;;
69053;SDS011;56125;52.242;4.756;2023-12-28T00:55:24;3.47;;;1.48;;
69053;SDS011;56125;52.242;4.756;2023-12-28T01:00:25;4.93;;;1.65;;
69053;SDS011;56125;52.242;4.756;2023-12-28T01:05:27;2.17;;;1.20;;
69053;SDS011;56125;52.242;4.756;2023-12-28T01:10:29;2.30;;;1.30;;
69053;SDS011;56125;52.242;4.756;2023-12-28T01:15:30;2.63;;;1.38;;
69053;SDS011;56125;52.242;4.756;2023-12-28T01:20:31;2.55;;;1.23;;
69053;SDS011;56125;52.242;4.756;2023-12-28T01:25:32;2.22;;;1.20;;
69053;SDS011;56125;52.242;4.756;2023-12-28T01:30:33;2.92;;;1.40;;
69053;SDS011;56125;52.242;4.756;2023-12-28T01:35:34;3.13;;;1.10;;
69053;SDS011;56125;52.242;4.756;2023-12-28T01:40:35;3.25;;;1.20;;
69053;SDS011;56125;52.242;4.756;2023-12-28T01:45:36;2.55;;;1.15;;
69053;SDS011;56125;52.242;4.756;2023-12-28T01:50:37;2.58;;;1.40;;
69053;SDS011;56125;52.242;4.756;2023-12-28T01:55:39;1.73;;;1.20;;
69053;SDS011;56125;52.242;4.756;2023-12-28T02:00:40;3.50;;;1.20;;
69053;SDS011;56125;52.242;4.756;2023-12-28T02:05:43;2.83;;;1.35;;
69053;SDS011;56125;52.242;4.756;2023-12-28T02:10:44;4.22;;;1.80;;
69053;SDS011;56125;52.242;4.756;2023-12-28T02:15:46;2.13;;;1.35;;
69053;SDS011;56125;52.242;4.756;2023-12-28T02:20:51;2.38;;;1.33;;
69053;SDS011;56125;52.242;4.756;2023-12-28T02:25:52;2.75;;;1.30;;
69053;SDS011;56125;52.242;4.756;2023-12-28T02:30:54;2.40;;;1.17;;
69053;SDS011;56125;52.242;4.756;2023-12-28T02:35:56;2.30;;;1.17;;
69053;SDS011;56125;52.242;4.756;2023-12-28T02:40:59;2.97;;;1.10;;
69053;SDS011;56125;52.242;4.756;2023-12-28T02:46:01;4.43;;;1.30;;
69053;SDS011;56125;52.242;4.756;2023-12-28T02:51:02;2.80;;;1.10;;
69053;SDS011;56125;52.242;4.756;2023-12-28T02:56:03;2.42;;;1.40;;
69053;SDS011;56125;52.242;4.756;2023-12-28T03:01:04;2.83;;;1.40;;
69053;SDS011;56125;52.242;4.756;2023-12-28T03:06:05;4.13;;;1.23;;
69053;SDS011;56125;52.242;4.756;2023-12-28T03:11:07;2.40;;;1.35;;
69053;SDS011;56125;52.242;4.756;2023-12-28T03:16:08;2.13;;;1.27;;
69053;SDS011;56125;52.242;4.756;2023-12-28T03:21:09;4.05;;;1.00;;
69053;SDS011;56125;52.242;4.756;2023-12-28T03:26:10;2.08;;;1.10;;
69053;SDS011;56125;52.242;4.756;2023-12-28T03:31:11;3.03;;;1.45;;
69053;SDS011;56125;52.242;4.756;2023-12-28T03:36:18;1.42;;;1.05;;
69053;SDS011;56125;52.242;4.756;2023-12-28T03:41:20;4.90;;;1.38;;
69053;SDS011;56125;52.242;4.756;2023-12-28T03:46:21;3.03;;;1.27;;
69053;SDS011;56125;52.242;4.756;2023-12-28T03:51:22;2.45;;;1.30;;
69053;SDS011;56125;52.242;4.756;2023-12-28T03:56:24;3.90;;;1.30;;
69053;SDS011;56125;52.242;4.756;2023-12-28T04:01:26;2.55;;;1.27;;
69053;SDS011;56125;52.242;4.756;2023-12-28T04:06:27;3.10;;;1.23;;
69053;SDS011;56125;52.242;4.756;2023-12-28T04:11:28;2.30;;;1.40;;
69053;SDS011;56125;52.242;4.756;2023-12-28T04:16:29;1.73;;;1.17;;
69053;SDS011;56125;52.242;4.756;2023-12-28T04:21:31;1.98;;;1.10;;
69053;SDS011;56125;52.242;4.756;2023-12-28T04:26:32;2.08;;;1.40;;
69053;SDS011;56125;52.242;4.756;2023-12-28T04:31:39;4.72;;;1.35;;
69053;SDS011;56125;52.242;4.756;2023-12-28T04:36:43;2.70;;;1.15;;
69053;SDS011;56125;52.242;4.756;2023-12-28T04:41:45;2.35;;;1.10;;
69053;SDS011;56125;52.242;4.756;2023-12-28T04:46:46;3.35;;;1.25;;
69053;SDS011;56125;52.242;4.756;2023-12-28T04:51:47;2.45;;;1.05;;
69053;SDS011;56125;52.242;4.756;2023-12-28T04:56:48;3.92;;;1.30;;
69053;SDS011;56125;52.242;4.756;2023-12-28T05:01:49;3.45;;;1.33;;
69053;SDS011;56125;52.242;4.756;2023-12-28T05:06:50;1.67;;;1.05;;
69053;SDS011;56125;52.242;4.756;2023-12-28T05:11:51;3.03;;;1.17;;
69053;SDS011;56125;52.242;4.756;2023-12-28T05:16:52;2.40;;;1.20;;
69053;SDS011;56125;52.242;4.756;2023-12-28T05:21:53;3.08;;;1.35;;
69053;SDS011;56125;52.242;4.756;2023-12-28T05:26:54;2.30;;;1.00;;
69053;SDS011;56125;52.242;4.756;2023-12-28T05:31:55;3.28;;;1.17;;
69053;SDS011;56125;52.242;4.756;2023-12-28T05:36:56;2.58;;;1.10;;
69053;SDS011;56125;52.242;4.756;2023-12-28T05:41:57;3.20;;;1.20;;
69053;SDS011;56125;52.242;4.756;2023-12-28T05:46:58;4.38;;;1.00;;
69053;SDS011;56125;52.242;4.756;2023-12-28T05:51:59;4.55;;;1.17;;
69053;SDS011;56125;52.242;4.756;2023-12-28T05:57:01;2.88;;;1.17;;
69053;SDS011;56125;52.242;4.756;2023-12-28T06:02:02;4.72;;;1.15;;
69053;SDS011;56125;52.242;4.756;2023-12-28T06:07:04;2.22;;;1.00;;
69053;SDS011;56125;52.242;4.756;2023-12-28T06:12:05;4.63;;;1.20;;
69053;SDS011;56125;52.242;4.756;2023-12-28T06:17:06;4.22;;;1.23;;
69053;SDS011;56125;52.242;4.756;2023-12-28T06:22:07;4.78;;;1.45;;
69053;SDS011;56125;52.242;4.756;2023-12-28T06:27:08;4.07;;;1.10;;
69053;SDS011;56125;52.242;4.756;2023-12-28T06:32:10;4.75;;;1.40;;
69053;SDS011;56125;52.242;4.756;2023-12-28T06:37:11;4.00;;;1.15;;
69053;SDS011;56125;52.242;4.756;2023-12-28T06:42:12;5.43;;;1.40;;
69053;SDS011;56125;52.242;4.756;2023-12-28T06:47:13;4.53;;;1.45;;
69053;SDS011;56125;52.242;4.756;2023-12-28T06:52:14;5.95;;;1.35;;
69053;SDS011;56125;52.242;4.756;2023-12-28T06:57:15;4.25;;;1.30;;
69053;SDS011;56125;52.242;4.756;2023-12-28T07:02:16;7.25;;;1.23;;
69053;SDS011;56125;52.242;4.756;2023-12-28T07:07:17;5.00;;;1.40;;
69053;SDS011;56125;52.242;4.756;2023-12-28T07:12:18;6.38;;;1.60;;
69053;SDS011;56125;52.242;4.756;2023-12-28T07:17:20;5.57;;;1.38;;
69053;SDS011;56125;52.242;4.756;2023-12-28T07:22:21;5.72;;;1.50;;
69053;SDS011;56125;52.242;4.756;2023-12-28T07:27:23;5.55;;;1.67;;
69053;SDS011;56125;52.242;4.756;2023-12-28T07:32:24;4.65;;;1.23;;
69053;SDS011;56125;52.242;4.756;2023-12-28T07:37:26;6.95;;;1.80;;
69053;SDS011;56125;52.242;4.756;2023-12-28T07:42:27;3.47;;;1.15;;
69053;SDS011;56125;52.242;4.756;2023-12-28T07:47:28;6.05;;;1.55;;
69053;SDS011;56125;52.242;4.756;2023-12-28T07:52:30;5.63;;;1.33;;
69053;SDS011;56125;52.242;4.756;2023-12-28T07:57:31;5.47;;;1.50;;
69053;SDS011;56125;52.242;4.756;2023-12-28T08:02:32;5.70;;;1.30;;
69053;SDS011;56125;52.242;4.756;2023-12-28T08:07:33;6.55;;;1.20;;
69053;SDS011;56125;52.242;4.756;2023-12-28T08:12:34;3.42;;;1.33;;
69053;SDS011;56125;52.242;4.756;2023-12-28T08:17:35;5.82;;;1.60;;
69053;SDS011;56125;52.242;4.756;2023-12-28T08:22:36;3.47;;;1.15;;
69053;SDS011;56125;52.242;4.756;2023-12-28T08:27:37;3.72;;;1.10;;
69053;SDS011;56125;52.242;4.756;2023-12-28T08:32:38;3.63;;;1.10;;
69053;SDS011;56125;52.242;4.756;2023-12-28T08:37:39;5.30;;;1.35;;
69053;SDS011;56125;52.242;4.756;2023-12-28T08:42:41;4.65;;;1.55;;
69053;SDS011;56125;52.242;4.756;2023-12-28T08:47:42;4.90;;;0.90;;
69053;SDS011;56125;52.242;4.756;2023-12-28T08:52:43;4.43;;;1.10;;
69053;SDS011;56125;52.242;4.756;2023-12-28T08:57:45;3.47;;;1.50;;
69053;SDS011;56125;52.242;4.756;2023-12-28T09:02:46;3.90;;;1.27;;
69053;SDS011;56125;52.242;4.756;2023-12-28T09:07:47;2.58;;;0.98;;
69053;SDS011;56125;52.242;4.756;2023-12-28T09:12:48;2.28;;;1.08;;
69053;SDS011;56125;52.242;4.756;2023-12-28T09:17:49;3.78;;;1.17;;
69053;SDS011;56125;52.242;4.756;2023-12-28T09:22:51;3.13;;;1.13;;
69053;SDS011;56125;52.242;4.756;2023-12-28T09:27:56;4.43;;;1.33;;
69053;SDS011;56125;52.242;4.756;2023-12-28T09:32:57;5.10;;;1.30;;
69053;SDS011;56125;52.242;4.756;2023-12-28T09:37:59;3.42;;;1.25;;
69053;SDS011;56125;52.242;4.756;2023-12-28T09:43:17;4.68;;;1.10;;
69053;SDS011;56125;52.242;4.756;2023-12-28T09:48:20;5.85;;;1.30;;
69053;SDS011;56125;52.242;4.756;2023-12-28T09:53:22;4.80;;;1.33;;
69053;SDS011;56125;52.242;4.756;2023-12-28T09:58:26;3.78;;;1.80;;
69053;SDS011;56125;52.242;4.756;2023-12-28T10:03:30;4.53;;;1.30;;
69053;SDS011;56125;52.242;4.756;2023-12-28T10:08:31;4.40;;;1.67;;
69053;SDS011;56125;52.242;4.756;2023-12-28T10:13:33;4.47;;;1.00;;
69053;SDS011;56125;52.242;4.756;2023-12-28T10:18:35;4.63;;;1.40;;
69053;SDS011;56125;52.242;4.756;2023-12-28T10:23:36;4.55;;;1.90;;
69053;SDS011;56125;52.242;4.756;2023-12-28T10:28:38;4.80;;;1.50;;
69053;SDS011;56125;52.242;4.756;2023-12-28T10:33:40;8.23;;;1.98;;
69053;SDS011;56125;52.242;4.756;2023-12-28T10:38:41;6.13;;;1.50;;
69053;SDS011;56125;52.242;4.756;2023-12-28T10:43:46;8.52;;;1.50;;
69053;SDS011;56125;52.242;4.756;2023-12-28T10:55:03;5.95;;;1.35;;
69053;SDS011;56125;52.242;4.756;2023-12-28T11:05:13;7.80;;;1.55;;
69053;SDS011;56125;52.242;4.756;2023-12-28T11:10:18;8.93;;;2.17;;
69053;SDS011;56125;52.242;4.756;2023-12-28T11:15:20;6.50;;;1.70;;
69053;SDS011;56125;52.242;4.756;2023-12-28T11:20:24;5.65;;;1.58;;
69053;SDS011;56125;52.242;4.756;2023-12-28T11:25:30;6.57;;;1.42;;
69053;SDS011;56125;52.242;4.756;2023-12-28T11:30:31;4.95;;;1.33;;
69053;SDS011;56125;52.242;4.756;2023-12-28T11:35:38;6.68;;;1.52;;
69053;SDS011;56125;52.242;4.756;2023-12-28T11:40:40;6.45;;;1.60;;
69053;SDS011;56125;52.242;4.756;2023-12-28T11:45:49;8.52;;;1.40;;
69053;SDS011;56125;52.242;4.756;2023-12-28T11:50:54;6.63;;;1.60;;
69053;SDS011;56125;52.242;4.756;2023-12-28T11:56:00;4.68;;;1.50;;
69053;SDS011;56125;52.242;4.756;2023-12-28T12:01:02;7.95;;;1.52;;
69053;SDS011;56125;52.242;4.756;2023-12-28T12:06:04;8.02;;;1.65;;
69053;SDS011;56125;52.242;4.756;2023-12-28T12:11:05;6.68;;;1.80;;
69053;SDS011;56125;52.242;4.756;2023-12-28T12:16:07;8.02;;;1.52;;
69053;SDS011;56125;52.242;4.756;2023-12-28T12:21:08;4.82;;;1.40;;
69053;SDS011;56125;52.242;4.756;2023-12-28T12:26:09;8.82;;;1.67;;
69053;SDS011;56125;52.242;4.756;2023-12-28T12:31:10;6.47;;;1.85;;
69053;SDS011;56125;52.242;4.756;2023-12-28T12:36:12;9.10;;;1.90;;
69053;SDS011;56125;52.242;4.756;2023-12-28T12:41:13;8.27;;;1.90;;
69053;SDS011;56125;52.242;4.756;2023-12-28T12:46:14;8.27;;;1.83;;
69053;SDS011;56125;52.242;4.756;2023-12-28T12:51:15;8.52;;;1.75;;
69053;SDS011;56125;52.242;4.756;2023-12-28T12:56:18;4.32;;;1.60;;
69053;SDS011;56125;52.242;4.756;2023-12-28T13:01:20;10.10;;;2.28;;
69053;SDS011;56125;52.242;4.756;2023-12-28T13:06:22;6.97;;;1.85;;
69053;SDS011;56125;52.242;4.756;2023-12-28T13:11:23;7.20;;;2.03;;
69053;SDS011;56125;52.242;4.756;2023-12-28T13:16:26;6.90;;;1.65;;
69053;SDS011;56125;52.242;4.756;2023-12-28T13:21:27;7.22;;;1.70;;
69053;SDS011;56125;52.242;4.756;2023-12-28T13:26:28;8.65;;;1.55;;
69053;SDS011;56125;52.242;4.756;2023-12-28T13:31:29;6.57;;;1.70;;
69053;SDS011;56125;52.242;4.756;2023-12-28T13:36:30;5.15;;;1.42;;
69053;SDS011;56125;52.242;4.756;2023-12-28T13:41:31;7.57;;;1.50;;
69053;SDS011;56125;52.242;4.756;2023-12-28T13:46:33;6.05;;;1.50;;
69053;SDS011;56125;52.242;4.756;2023-12-28T13:51:34;8.20;;;2.10;;
69053;SDS011;56125;52.242;4.756;2023-12-28T13:56:36;6.57;;;1.42;;
69053;SDS011;56125;52.242;4.756;2023-12-28T14:01:37;8.27;;;1.63;;
69053;SDS011;56125;52.242;4.756;2023-12-28T14:06:39;8.00;;;2.13;;
69053;SDS011;56125;52.242;4.756;2023-12-28T14:11:42;6.95;;;1.83;;
69053;SDS011;56125;52.242;4.756;2023-12-28T14:16:43;6.20;;;2.22;;
69053;SDS011;56125;52.242;4.756;2023-12-28T14:21:44;10.52;;;2.60;;
69053;SDS011;56125;52.242;4.756;2023-12-28T14:26:45;9.88;;;1.88;;
69053;SDS011;56125;52.242;4.756;2023-12-28T14:31:47;6.10;;;1.85;;
69053;SDS011;56125;52.242;4.756;2023-12-28T14:36:49;7.20;;;1.70;;
69053;SDS011;56125;52.242;4.756;2023-12-28T14:41:52;6.65;;;1.67;;
69053;SDS011;56125;52.242;4.756;2023-12-28T14:47:00;8.40;;;1.52;;
69053;SDS011;56125;52.242;4.756;2023-12-28T14:52:01;6.70;;;1.60;;
69053;SDS011;56125;52.242;4.756;2023-12-28T14:57:02;8.43;;;2.05;;
69053;SDS011;56125;52.242;4.756;2023-12-28T15:02:03;6.57;;;1.55;;
69053;SDS011;56125;52.242;4.756;2023-12-28T15:07:04;8.32;;;1.80;;
69053;SDS011;56125;52.242;4.756;2023-12-28T15:12:05;8.95;;;1.75;;
69053;SDS011;56125;52.242;4.756;2023-12-28T15:17:07;6.72;;;2.05;;
69053;SDS011;56125;52.242;4.756;2023-12-28T15:22:08;6.95;;;1.65;;
69053;SDS011;56125;52.242;4.756;2023-12-28T15:27:10;7.00;;;2.13;;
69053;SDS011;56125;52.242;4.756;2023-12-28T15:32:12;8.88;;;2.05;;
69053;SDS011;56125;52.242;4.756;2023-12-28T15:37:13;7.55;;;2.35;;
69053;SDS011;56125;52.242;4.756;2023-12-28T15:42:15;5.22;;;1.48;;
69053;SDS011;56125;52.242;4.756;2023-12-28T15:47:16;7.00;;;2.03;;
69053;SDS011;56125;52.242;4.756;2023-12-28T15:52:18;7.55;;;1.95;;
69053;SDS011;56125;52.242;4.756;2023-12-28T15:57:19;6.90;;;1.90;;
69053;SDS011;56125;52.242;4.756;2023-12-28T16:02:20;7.53;;;2.53;;
69053;SDS011;56125;52.242;4.756;2023-12-28T16:07:21;7.13;;;1.58;;
69053;SDS011;56125;52.242;4.756;2023-12-28T16:12:23;9.10;;;1.63;;
69053;SDS011;56125;52.242;4.756;2023-12-28T16:17:24;4.70;;;1.42;;
69053;SDS011;56125;52.242;4.756;2023-12-28T16:22:25;3.75;;;1.30;;
69053;SDS011;56125;52.242;4.756;2023-12-28T16:27:27;6.22;;;1.83;;
69053;SDS011;56125;52.242;4.756;2023-12-28T16:32:28;6.78;;;1.38;;
69053;SDS011;56125;52.242;4.756;2023-12-28T16:37:29;6.38;;;2.22;;
69053;SDS011;56125;52.242;4.756;2023-12-28T16:42:30;4.82;;;1.38;;
69053;SDS011;56125;52.242;4.756;2023-12-28T16:47:31;6.88;;;1.67;;
69053;SDS011;56125;52.242;4.756;2023-12-28T16:52:32;5.22;;;1.65;;
69053;SDS011;56125;52.242;4.756;2023-12-28T16:57:33;6.50;;;1.90;;
69053;SDS011;56125;52.242;4.756;2023-12-28T17:02:34;5.03;;;1.38;;
69053;SDS011;56125;52.242;4.756;2023-12-28T17:07:36;4.97;;;1.40;;
69053;SDS011;56125;52.242;4.756;2023-12-28T17:12:37;5.63;;;1.60;;
69053;SDS011;56125;52.242;4.756;2023-12-28T17:17:40;5.47;;;1.50;;
69053;SDS011;56125;52.242;4.756;2023-12-28T17:22:46;4.45;;;1.45;;
69053;SDS011;56125;52.242;4.756;2023-12-28T17:27:49;4.22;;;1.20;;
69053;SDS011;56125;52.242;4.756;2023-12-28T17:32:54;4.60;;;1.67;;
69053;SDS011;56125;52.242;4.756;2023-12-28T17:37:58;2.30;;;1.30;;
69053;SDS011;56125;52.242;4.756;2023-12-28T17:43:03;3.03;;;1.13;;
69053;SDS011;56125;52.242;4.756;2023-12-28T17:48:12;5.97;;;1.52;;
69053;SDS011;56125;52.242;4.756;2023-12-28T17:53:21;4.13;;;1.05;;
69053;SDS011;56125;52.242;4.756;2023-12-28T17:58:22;3.72;;;1.10;;
69053;SDS011;56125;52.242;4.756;2023-12-28T18:03:23;3.17;;;1.20;;
69053;SDS011;56125;52.242;4.756;2023-12-28T18:08:25;6.22;;;1.20;;
69053;SDS011;56125;52.242;4.756;2023-12-28T18:13:26;4.93;;;1.58;;
69053;SDS011;56125;52.242;4.756;2023-12-28T18:18:27;4.40;;;1.40;;
69053;SDS011;56125;52.242;4.756;2023-12-28T18:23:28;3.55;;;1.50;;
69053;SDS011;56125;52.242;4.756;2023-12-28T18:28:29;4.25;;;1.40;;
69053;SDS011;56125;52.242;4.756;2023-12-28T18:33:32;7.03;;;1.70;;
69053;SDS011;56125;52.242;4.756;2023-12-28T18:38:37;5.53;;;1.33;;
69053;SDS011;56125;52.242;4.756;2023-12-28T18:43:38;4.90;;;1.65;;
69053;SDS011;56125;52.242;4.756;2023-12-28T18:48:39;5.60;;;1.38;;
69053;SDS011;56125;52.242;4.756;2023-12-28T18:53:40;4.43;;;1.50;;
69053;SDS011;56125;52.242;4.756;2023-12-28T18:58:55;6.45;;;1.67;;
69053;SDS011;56125;52.242;4.756;2023-12-28T19:03:56;6.13;;;2.00;;
69053;SDS011;56125;52.242;4.756;2023-12-28T19:08:57;6.82;;;1.52;;
69053;SDS011;56125;52.242;4.756;2023-12-28T19:13:59;4.45;;;1.23;;
69053;SDS011;56125;52.242;4.756;2023-12-28T19:19:01;4.55;;;1.27;;
69053;SDS011;56125;52.242;4.756;2023-12-28T19:24:02;5.55;;;1.35;;
69053;SDS011;56125;52.242;4.756;2023-12-28T19:29:03;7.68;;;1.60;;
69053;SDS011;56125;52.242;4.756;2023-12-28T19:34:04;5.82;;;1.70;;
69053;SDS011;56125;52.242;4.756;2023-12-28T19:39:05;6.00;;;1.80;;
69053;SDS011;56125;52.242;4.756;2023-12-28T19:44:06;5.32;;;1.90;;
69053;SDS011;56125;52.242;4.756;2023-12-28T19:49:07;6.65;;;1.60;;
69053;SDS011;56125;52.242;4.756;2023-12-28T19:54:08;6.63;;;1.90;;
69053;SDS011;56125;52.242;4.756;2023-12-28T19:59:10;5.50;;;1.65;;
69053;SDS011;56125;52.242;4.756;2023-12-28T20:04:11;6.95;;;1.73;;
69053;SDS011;56125;52.242;4.756;2023-12-28T20:09:12;4.70;;;1.40;;
69053;SDS011;56125;52.242;4.756;2023-12-28T20:14:15;6.80;;;1.38;;
69053;SDS011;56125;52.242;4.756;2023-12-28T20:19:16;6.60;;;1.45;;
69053;SDS011;56125;52.242;4.756;2023-12-28T20:24:17;5.70;;;1.50;;
69053;SDS011;56125;52.242;4.756;2023-12-28T20:29:19;5.30;;;1.30;;
69053;SDS011;56125;52.242;4.756;2023-12-28T20:34:20;5.50;;;1.33;;
69053;SDS011;56125;52.242;4.756;2023-12-28T20:39:21;4.13;;;1.17;;
69053;SDS011;56125;52.242;4.756;2023-12-28T20:44:22;3.40;;;1.52;;
69053;SDS011;56125;52.242;4.756;2023-12-28T20:49:23;4.05;;;1.27;;
69053;SDS011;56125;52.242;4.756;2023-12-28T20:54:24;4.88;;;1.50;;
69053;SDS011;56125;52.242;4.756;2023-12-28T20:59:25;3.17;;;1.17;;
69053;SDS011;56125;52.242;4.756;2023-12-28T21:04:27;4.65;;;1.55;;
69053;SDS011;56125;52.242;4.756;2023-12-28T21:09:28;6.20;;;1.55;;
69053;SDS011;56125;52.242;4.756;2023-12-28T21:14:29;5.45;;;1.58;;
69053;SDS011;56125;52.242;4.756;2023-12-28T21:19:31;6.80;;;1.77;;
69053;SDS011;56125;52.242;4.756;2023-12-28T21:24:32;4.30;;;1.30;;
69053;SDS011;56125;52.242;4.756;2023-12-28T21:29:37;3.63;;;1.10;;
69053;SDS011;56125;52.242;4.756;2023-12-28T21:34:39;6.47;;;1.60;;
69053;SDS011;56125;52.242;4.756;2023-12-28T21:39:40;2.38;;;1.10;;
69053;SDS011;56125;52.242;4.756;2023-12-28T21:44:41;5.30;;;1.55;;
69053;SDS011;56125;52.242;4.756;2023-12-28T21:49:43;6.25;;;1.25;;
69053;SDS011;56125;52.242;4.756;2023-12-28T21:54:44;7.43;;;1.40;;
69053;SDS011;56125;52.242;4.756;2023-12-28T21:59:45;5.05;;;1.30;;
69053;SDS011;56125;52.242;4.756;2023-12-28T22:04:46;2.63;;;1.10;;
69053;SDS011;56125;52.242;4.756;2023-12-28T22:09:47;4.50;;;1.10;;
69053;SDS011;56125;52.242;4.756;2023-12-28T22:14:48;4.03;;;1.35;;
69053;SDS011;56125;52.242;4.756;2023-12-28T22:19:49;5.50;;;1.23;;
69053;SDS011;56125;52.242;4.756;2023-12-28T22:24:50;3.03;;;1.38;;
69053;SDS011;56125;52.242;4.756;2023-12-28T22:29:51;3.60;;;1.17;;
69053;SDS011;56125;52.242;4.756;2023-12-28T22:34:52;5.70;;;1.60;;
69053;SDS011;56125;52.242;4.756;2023-12-28T22:39:53;3.67;;;1.40;;
69053;SDS011;56125;52.242;4.756;2023-12-28T22:44:54;5.70;;;1.58;;
69053;SDS011;56125;52.242;4.756;2023-12-28T22:49:55;2.92;;;1.02;;
69053;SDS011;56125;52.242;4.756;2023-12-28T22:54:57;5.07;;;1.77;;
69053;SDS011;56125;52.242;4.756;2023-12-28T22:59:58;4.18;;;1.10;;
69053;SDS011;56125;52.242;4.756;2023-12-28T23:04:59;4.13;;;1.23;;
69053;SDS011;56125;52.242;4.756;2023-12-28T23:10:00;4.93;;;1.48;;
69053;SDS011;56125;52.242;4.756;2023-12-28T23:15:02;5.40;;;1.60;;
69053;SDS011;56125;52.242;4.756;2023-12-28T23:20:04;4.75;;;1.38;;
69053;SDS011;56125;52.242;4.756;2023-12-28T23:25:06;3.22;;;1.42;;
69053;SDS011;56125;52.242;4.756;2023-12-28T23:30:08;4.70;;;1.38;;
69053;SDS011;56125;52.242;4.756;2023-12-28T23:35:13;3.72;;;1.00;;
69053;SDS011;56125;52.242;4.756;2023-12-28T23:40:14;4.93;;;1.23;;
69053;SDS011;56125;52.242;4.756;2023-12-28T23:45:15;4.57;;;1.38;;
69053;SDS011;56125;52.242;4.756;2023-12-28T23:50:16;5.25;;;1.20;;
69053;SDS011;56125;52.242;4.756;2023-12-28T23:55:17;3.85;;;1.50;;
